Time;durP1;ratioP1;P1;durP2;ratioP2;P2;SDS_P1;SDS_P2;PMS_P1;PMS_P2;Temp;Humidity;BMP_temperature;BMP_pressure;BME280_temperature;BME280_humidity;BME280_pressure;Samples;Min_cycle;Max_cycle;Signal;HPM_P1;HPM_P2
2022/08/09 00:02:06;;;;;;;;;;;;;;;;;;5007560;28;46869;-76
2022/08/09 00:04:33;;;;;;;;;;;;;;;;;;5004634;28;44738;-75
2022/08/09 00:07:00;;;;;;;;;;;;;;;;;;5009185;28;47897;-76
2022/08/09 00:09:26;;;;;;;;;;;;;;;;;;5009384;28;47221;-75
2022/08/09 00:11:53;;;;;;;;;;;;;;;;;;5010992;28;45836;-75
2022/08/09 00:14:28;;;;;;;;;;;;;;;;;;4991270;28;46882;-75
2022/08/09 00:17:01;;;;;;;;;;;;;;;;;;4994670;28;44929;-76
2022/08/09 00:19:28;;;;;;;;;;;;;;;;;;4996195;28;46390;-76
2022/08/09 00:21:54;;;;;;;;;;;;;;;;;;5009269;28;48130;-76
2022/08/09 00:24:21;;;;;;;;;;;;;;;;;;5004601;28;45109;-76
2022/08/09 00:26:47;;;;;;;;;;;;;;;;;;5007325;28;47498;-76
2022/08/09 00:29:14;;;;;;;;;;;;;;;;;;5006876;28;48140;-76
2022/08/09 00:32:00;;;;;;;;;;;;;;;;;;5009427;28;20411;-76
2022/08/09 00:34:26;;;;;;;;;;;;;;;;;;5007981;28;47039;-76
2022/08/09 00:36:53;;;;;;;;;;;;;;;;;;5008508;28;44555;-76
2022/08/09 00:39:19;;;;;;;;;;;;;;;;;;5006502;28;45760;-76
2022/08/09 00:42:05;;;;;;;;;;;;;;;;;;5009721;28;19934;-76
2022/08/09 00:44:51;;;;;;;;;;;;;;;;;;5009132;28;20417;-76
2022/08/09 00:47:18;;;;;;;;;;;;;;;;;;5007955;28;46575;-76
2022/08/09 00:49:45;;;;;;;;;;;;;;;;;;5008400;28;45761;-76
2022/08/09 00:52:21;;;;;;;;;;;;;;;;;;4989939;28;45742;-76
2022/08/09 00:54:50;;;;;;;;;;;;;;;;;;5005172;28;47872;-76
2022/08/09 00:57:16;;;;;;;;;;;;;;;;;;5008538;28;45313;-76
2022/08/09 00:59:49;;;;;;;;;;;;;;;;;;4992980;28;44442;-76
2022/08/09 01:02:18;;;;;;;;;;;;;;;;;;4991216;28;48348;-76
2022/08/09 01:04:44;;;;;;;;;;;;;;;;;;5005245;28;44840;-76
2022/08/09 01:07:10;;;;;;;;;;;;;;;;;;4990629;28;45407;-76
2022/08/09 01:09:38;;;;;;;;;;;;;;;;;;4988325;28;47026;-76
2022/08/09 01:12:05;;;;;;;;;;;;;;;;;;4991116;28;45740;-76
2022/08/09 01:14:31;;;;;;;;;;;;;;;;;;5006941;28;45398;-76
2022/08/09 01:16:57;;;;;;;;;;;;;;;;;;5006756;28;48305;-76
2022/08/09 01:19:24;;;;;;;;;;;;;;;;;;5006947;28;46410;-76
2022/08/09 01:22:04;;;;;;;;;;;;;;;;;;5007925;28;47267;-76
2022/08/09 01:24:31;;;;;;;;;;;;;;;;;;5007591;28;42787;-76
2022/08/09 01:26:57;;;;;;;;;;;;;;;;;;4988985;28;46219;-76
2022/08/09 01:29:24;;;;;;;;;;;;;;;;;;5005424;28;46894;-76
2022/08/09 01:31:53;;;;;;;;;;;;;;;;;;5007881;28;45029;-76
2022/08/09 01:34:39;;;;;;;;;;;;;;;;;;5009525;28;19929;-76
2022/08/09 01:37:06;;;;;;;;;;;;;;;;;;5006304;28;46828;-76
2022/08/09 01:39:34;;;;;;;;;;;;;;;;;;4989441;28;44731;-76
2022/08/09 01:42:00;;;;;;;;;;;;;;;;;;5007195;28;47646;-76
2022/08/09 01:44:31;;;;;;;;;;;;;;;;;;5014961;28;46145;-76
2022/08/09 01:46:57;;;;;;;;;;;;;;;;;;5006368;28;46439;-76
2022/08/09 01:49:24;;;;;;;;;;;;;;;;;;5005919;28;46845;-76
2022/08/09 01:51:50;;;;;;;;;;;;;;;;;;5007981;28;44321;-76
2022/08/09 01:54:19;;;;;;;;;;;;;;;;;;4990476;28;46205;-76
2022/08/09 01:56:45;;;;;;;;;;;;;;;;;;5006879;28;45745;-76
2022/08/09 01:59:16;;;;;;;;;;;;;;;;;;5005868;28;43809;-76
2022/08/09 02:01:42;;;;;;;;;;;;;;;;;;5007961;28;45377;-76
2022/08/09 02:04:25;;;;;;;;;;;;;;;;;;5006901;28;44567;-76
2022/08/09 02:07:07;;;;;;;;;;;;;;;;;;4988215;28;45193;-76
2022/08/09 02:09:33;;;;;;;;;;;;;;;;;;4986611;28;48229;-76
2022/08/09 02:12:07;;;;;;;;;;;;;;;;;;4990355;28;44505;-76
2022/08/09 02:14:33;;;;;;;;;;;;;;;;;;4988057;28;47623;-76
2022/08/09 02:17:02;;;;;;;;;;;;;;;;;;5003000;28;48125;-76
2022/08/09 02:19:48;;;;;;;;;;;;;;;;;;5007825;28;20385;-76
2022/08/09 02:22:15;;;;;;;;;;;;;;;;;;5006682;28;46794;-76
2022/08/09 02:24:41;;;;;;;;;;;;;;;;;;5005542;28;47037;-76
2022/08/09 02:27:07;;;;;;;;;;;;;;;;;;4988338;28;46791;-76
2022/08/09 02:29:34;;;;;;;;;;;;;;;;;;4989667;28;46834;-76
2022/08/09 02:32:00;;;;;;;;;;;;;;;;;;5007463;28;46201;-76
2022/08/09 02:34:27;;;;;;;;;;;;;;;;;;4986756;28;47956;-76
2022/08/09 02:37:06;;;;;;;;;;;;;;;;;;5000354;28;46850;-76
2022/08/09 02:39:32;;;;;;;;;;;;;;;;;;5004696;28;45689;-76
2022/08/09 02:42:07;;;;;;;;;;;;;;;;;;5007165;28;45354;-76
2022/08/09 02:44:33;;;;;;;;;;;;;;;;;;4989647;28;44319;-76
2022/08/09 02:46:59;;;;;;;;;;;;;;;;;;5006107;28;46031;-76
2022/08/09 02:49:25;;;;;;;;;;;;;;;;;;5006770;28;45804;-76
2022/08/09 02:52:03;;;;;;;;;;;;;;;;;;5005498;28;45988;-76
2022/08/09 02:54:29;;;;;;;;;;;;;;;;;;5006646;28;46446;-76
2022/08/09 02:56:56;;;;;;;;;;;;;;;;;;4987384;28;47948;-76
2022/08/09 02:59:22;;;;;;;;;;;;;;;;;;5005558;28;44750;-76
2022/08/09 03:01:51;;;;;;;;;;;;;;;;;;5004784;28;47402;-76
2022/08/09 03:04:31;;;;;;;;;;;;;;;;;;4990331;28;48403;-76
2022/08/09 03:06:57;;;;;;;;;;;;;;;;;;5004958;28;43498;-76
2022/08/09 03:09:24;;;;;;;;;;;;;;;;;;5006651;28;47125;-76
2022/08/09 03:11:51;;;;;;;;;;;;;;;;;;5006762;28;44657;-76
2022/08/09 03:14:34;;;;;;;;;;;;;;;;;;5002707;28;47819;-76
2022/08/09 03:17:01;;;;;;;;;;;;;;;;;;5002481;28;46682;-76
2022/08/09 03:19:30;;;;;;;;;;;;;;;;;;4989541;28;44067;-76
2022/08/09 03:22:17;;;;;;;;;;;;;;;;;;5007374;28;19937;-76
2022/08/09 03:24:50;;;;;;;;;;;;;;;;;;5005338;28;48434;-76
2022/08/09 03:27:17;;;;;;;;;;;;;;;;;;5004565;28;44503;-76
2022/08/09 03:29:46;;;;;;;;;;;;;;;;;;5006732;28;47005;-77
2022/08/09 03:32:23;;;;;;;;;;;;;;;;;;4990298;28;45191;-77
2022/08/09 03:34:49;;;;;;;;;;;;;;;;;;5003764;28;45855;-77
2022/08/09 03:37:19;;;;;;;;;;;;;;;;;;4986900;28;45736;-77
2022/08/09 03:40:05;;;;;;;;;;;;;;;;;;4992681;28;19930;-77
2022/08/09 03:42:31;;;;;;;;;;;;;;;;;;5006491;28;45537;-77
2022/08/09 03:44:58;;;;;;;;;;;;;;;;;;5004929;28;47501;-76
2022/08/09 03:47:24;;;;;;;;;;;;;;;;;;5005335;28;44469;-77
2022/08/09 03:49:50;;;;;;;;;;;;;;;;;;5003835;28;47450;-77
2022/08/09 03:52:23;;;;;;;;;;;;;;;;;;5006990;28;48453;-77
2022/08/09 03:54:50;;;;;;;;;;;;;;;;;;5005135;28;47576;-77
2022/08/09 03:57:16;;;;;;;;;;;;;;;;;;5005342;28;48371;-76
2022/08/09 03:59:45;;;;;;;;;;;;;;;;;;5006306;28;44719;-76
2022/08/09 04:02:20;;;;;;;;;;;;;;;;;;4988520;28;46184;-77
2022/08/09 04:04:51;;;;;;;;;;;;;;;;;;5005604;28;47101;-77
2022/08/09 04:07:17;;;;;;;;;;;;;;;;;;5003604;28;45908;-77
2022/08/09 04:09:44;;;;;;;;;;;;;;;;;;5005838;28;47485;-77
2022/08/09 04:12:15;;;;;;;;;;;;;;;;;;5004630;28;47119;-77
2022/08/09 04:14:56;;;;;;;;;;;;;;;;;;5005184;28;45871;-77
2022/08/09 04:17:27;;;;;;;;;;;;;;;;;;4988584;28;46315;-77
2022/08/09 04:19:54;;;;;;;;;;;;;;;;;;5006078;28;43582;-77
2022/08/09 04:22:21;;;;;;;;;;;;;;;;;;4996461;28;46646;-77
2022/08/09 04:24:47;;;;;;;;;;;;;;;;;;5001107;28;48258;-77
2022/08/09 04:27:13;;;;;;;;;;;;;;;;;;5008948;28;44739;-77
2022/08/09 04:29:40;;;;;;;;;;;;;;;;;;4991203;28;47542;-77
2022/08/09 04:32:15;;;;;;;;;;;;;;;;;;5007236;28;45520;-77
2022/08/09 04:34:41;;;;;;;;;;;;;;;;;;5006414;28;44623;-77
2022/08/09 04:37:12;;;;;;;;;;;;;;;;;;4992479;28;46852;-77
2022/08/09 04:39:39;;;;;;;;;;;;;;;;;;5007919;28;45847;-77
2022/08/09 04:42:06;;;;;;;;;;;;;;;;;;5006557;28;47534;-77
2022/08/09 04:44:34;;;;;;;;;;;;;;;;;;5007792;28;47045;-76
2022/08/09 04:47:00;;;;;;;;;;;;;;;;;;4991039;28;45807;-77
2022/08/09 04:49:32;;;;;;;;;;;;;;;;;;4989595;28;46445;-77
2022/08/09 04:52:18;;;;;;;;;;;;;;;;;;5008356;28;19934;-77
2022/08/09 04:54:51;;;;;;;;;;;;;;;;;;4991629;28;44587;-77
2022/08/09 04:57:17;;;;;;;;;;;;;;;;;;4991357;28;46497;-77
2022/08/09 04:59:49;;;;;;;;;;;;;;;;;;5007308;28;43996;-76
2022/08/09 05:02:15;;;;;;;;;;;;;;;;;;4989158;28;47841;-76
2022/08/09 05:04:42;;;;;;;;;;;;;;;;;;5008083;28;45982;-77
2022/08/09 05:07:08;;;;;;;;;;;;;;;;;;4990512;28;44575;-77
2022/08/09 05:09:37;;;;;;;;;;;;;;;;;;4990670;28;46608;-76
2022/08/09 05:12:07;;;;;;;;;;;;;;;;;;5005265;28;46717;-76
2022/08/09 05:14:34;;;;;;;;;;;;;;;;;;5007517;28;44584;-77
2022/08/09 05:17:06;;;;;;;;;;;;;;;;;;4983885;28;44830;-77
2022/08/09 05:19:40;;;;;;;;;;;;;;;;;;5007043;28;46755;-77
2022/08/09 05:22:12;;;;;;;;;;;;;;;;;;4986474;28;45258;-77
2022/08/09 05:24:58;;;;;;;;;;;;;;;;;;5006907;28;48555;-76
2022/08/09 05:27:26;;;;;;;;;;;;;;;;;;5004814;28;43613;-77
2022/08/09 05:29:52;;;;;;;;;;;;;;;;;;4986924;28;46695;-77
2022/08/09 05:32:18;;;;;;;;;;;;;;;;;;4995709;28;45774;-77
2022/08/09 05:34:45;;;;;;;;;;;;;;;;;;4987113;28;44738;-77
2022/08/09 05:37:11;;;;;;;;;;;;;;;;;;5004644;28;47580;-77
2022/08/09 05:39:37;;;;;;;;;;;;;;;;;;5003326;28;48120;-77
2022/08/09 05:42:09;;;;;;;;;;;;;;;;;;5005408;28;46708;-76
2022/08/09 05:44:35;;;;;;;;;;;;;;;;;;5005041;28;48122;-77
2022/08/09 05:47:01;;;;;;;;;;;;;;;;;;5000767;28;44730;-76
2022/08/09 05:49:30;;;;;;;;;;;;;;;;;;4985648;28;47725;-77
2022/08/09 05:52:16;;;;;;;;;;;;;;;;;;4993420;28;19933;-77
2022/08/09 05:54:42;;;;;;;;;;;;;;;;;;4986397;28;45762;-77
2022/08/09 05:57:08;;;;;;;;;;;;;;;;;;4985438;28;46348;-77
2022/08/09 05:59:37;;;;;;;;;;;;;;;;;;4986698;28;48312;-77
2022/08/09 06:02:04;;;;;;;;;;;;;;;;;;5007391;28;45041;-77
2022/08/09 06:04:30;;;;;;;;;;;;;;;;;;5007106;28;46483;-77
2022/08/09 06:07:00;;;;;;;;;;;;;;;;;;5002906;28;44754;-77
2022/08/09 06:09:26;;;;;;;;;;;;;;;;;;5007483;28;47714;-77
2022/08/09 06:12:12;;;;;;;;;;;;;;;;;;5007594;28;20400;-77
2022/08/09 06:14:38;;;;;;;;;;;;;;;;;;4989391;28;45704;-77
2022/08/09 06:17:05;;;;;;;;;;;;;;;;;;5005301;28;45399;-78
2022/08/09 06:19:34;;;;;;;;;;;;;;;;;;5005872;28;48881;-77
2022/08/09 06:22:00;;;;;;;;;;;;;;;;;;4990059;28;44716;-77
2022/08/09 06:24:27;;;;;;;;;;;;;;;;;;4989341;28;45509;-77
2022/08/09 06:26:53;;;;;;;;;;;;;;;;;;5006105;28;47321;-77
2022/08/09 06:29:19;;;;;;;;;;;;;;;;;;4989097;28;47576;-77
2022/08/09 06:31:46;;;;;;;;;;;;;;;;;;5007735;28;47185;-77
2022/08/09 06:34:33;;;;;;;;;;;;;;;;;;5006422;28;19965;-77
2022/08/09 06:36:59;;;;;;;;;;;;;;;;;;5004284;28;46759;-77
2022/08/09 06:39:28;;;;;;;;;;;;;;;;;;4983816;28;45316;-77
2022/08/09 06:42:14;;;;;;;;;;;;;;;;;;4992215;28;44573;-77
2022/08/09 06:44:40;;;;;;;;;;;;;;;;;;4989425;28;47281;-77
2022/08/09 06:47:06;;;;;;;;;;;;;;;;;;5005387;28;46137;-77
2022/08/09 06:49:33;;;;;;;;;;;;;;;;;;5005498;28;46156;-77
2022/08/09 06:52:20;;;;;;;;;;;;;;;;;;5008353;28;19933;-77
2022/08/09 06:54:50;;;;;;;;;;;;;;;;;;4990401;28;44282;-77
2022/08/09 06:57:16;;;;;;;;;;;;;;;;;;5006112;28;46804;-77
2022/08/09 06:59:43;;;;;;;;;;;;;;;;;;5007067;28;47008;-78
2022/08/09 07:02:29;;;;;;;;;;;;;;;;;;4990963;28;19936;-76
2022/08/09 07:04:57;;;;;;;;;;;;;;;;;;5006812;28;47407;-76
2022/08/09 07:07:23;;;;;;;;;;;;;;;;;;5004669;28;48057;-76
2022/08/09 07:10:09;;;;;;;;;;;;;;;;;;5008331;28;20396;-76
2022/08/09 07:12:49;;;;;;;;;;;;;;;;;;5002533;28;48920;-76
2022/08/09 07:15:22;;;;;;;;;;;;;;;;;;4990400;28;46086;-76
2022/08/09 07:18:12;;;;;;;;;;;;;;;;;;5007099;28;19930;-77
2022/08/09 07:20:39;;;;;;;;;;;;;;;;;;4989269;28;48014;-77
2022/08/09 07:23:05;;;;;;;;;;;;;;;;;;5003190;28;44809;-76
2022/08/09 07:25:44;;;;;;;;;;;;;;;;;;5005519;28;46529;-76
2022/08/09 07:28:11;;;;;;;;;;;;;;;;;;5006320;28;47009;-77
2022/08/09 07:30:37;;;;;;;;;;;;;;;;;;5006049;28;43633;-77
2022/08/09 07:33:11;;;;;;;;;;;;;;;;;;4987283;28;46362;-76
2022/08/09 07:35:41;;;;;;;;;;;;;;;;;;5004465;28;44801;-76
2022/08/09 07:38:19;;;;;;;;;;;;;;;;;;4991622;28;47468;-76
2022/08/09 07:40:48;;;;;;;;;;;;;;;;;;5005140;28;48085;-77
2022/08/09 07:43:33;;;;;;;;;;;;;;;;;;4992548;28;46032;-77
2022/08/09 07:46:07;;;;;;;;;;;;;;;;;;5005074;28;47846;-77
2022/08/09 07:48:33;;;;;;;;;;;;;;;;;;4984477;28;48395;-77
2022/08/09 07:50:59;;;;;;;;;;;;;;;;;;4992677;28;44224;-77
2022/08/09 07:53:37;;;;;;;;;;;;;;;;;;5005338;28;47066;-77
2022/08/09 07:56:24;;;;;;;;;;;;;;;;;;5007345;28;19929;-77
2022/08/09 07:58:52;;;;;;;;;;;;;;;;;;4990392;28;47267;-77
2022/08/09 08:01:18;;;;;;;;;;;;;;;;;;4986990;28;47743;-77
2022/08/09 08:03:46;;;;;;;;;;;;;;;;;;5008140;28;44537;-77
2022/08/09 08:06:12;;;;;;;;;;;;;;;;;;5008577;28;46703;-77
2022/08/09 08:08:39;;;;;;;;;;;;;;;;;;5006671;28;47202;-77
2022/08/09 08:11:25;;;;;;;;;;;;;;;;;;5005624;28;44858;-77
2022/08/09 08:14:11;;;;;;;;;;;;;;;;;;5010457;28;19929;-77
2022/08/09 08:16:38;;;;;;;;;;;;;;;;;;4990279;28;46857;-77
2022/08/09 08:19:04;;;;;;;;;;;;;;;;;;5009613;28;43719;-76
2022/08/09 08:21:31;;;;;;;;;;;;;;;;;;4986855;28;48117;-76
2022/08/09 08:23:57;;;;;;;;;;;;;;;;;;4989973;28;46087;-76
2022/08/09 08:26:26;;;;;;;;;;;;;;;;;;4991109;28;43269;-76
2022/08/09 08:29:12;;;;;;;;;;;;;;;;;;4992842;28;19960;-77
2022/08/09 08:31:39;;;;;;;;;;;;;;;;;;5005404;28;44291;-77
2022/08/09 08:34:26;;;;;;;;;;;;;;;;;;5010900;28;20302;-76
2022/08/09 08:36:52;;;;;;;;;;;;;;;;;;5007659;28;47019;-77
2022/08/09 08:39:19;;;;;;;;;;;;;;;;;;5006167;28;44977;-76
2022/08/09 08:41:47;;;;;;;;;;;;;;;;;;5009545;28;47119;-76
2022/08/09 08:44:20;;;;;;;;;;;;;;;;;;5004841;28;44531;-76
2022/08/09 08:46:51;;;;;;;;;;;;;;;;;;4982916;28;46406;-76
2022/08/09 08:49:27;;;;;;;;;;;;;;;;;;5004103;28;48182;-76
2022/08/09 08:52:03;;;;;;;;;;;;;;;;;;5003090;28;44945;-77
2022/08/09 08:54:35;;;;;;;;;;;;;;;;;;5004182;28;48013;-76
2022/08/09 08:57:02;;;;;;;;;;;;;;;;;;5008944;28;47184;-76
2022/08/09 08:59:28;;;;;;;;;;;;;;;;;;4989737;28;45726;-76
2022/08/09 09:02:09;;;;;;;;;;;;;;;;;;5006180;28;48199;-76
2022/08/09 09:04:36;;;;;;;;;;;;;;;;;;5006663;28;34773;-76
2022/08/09 09:07:14;;;;;;;;;;;;;;;;;;5013201;28;46449;-76
2022/08/09 09:09:40;;;;;;;;;;;;;;;;;;4989626;28;49460;-76
2022/08/09 09:12:26;;;;;;;;;;;;;;;;;;5019323;28;20407;-76
2022/08/09 09:14:54;;;;;;;;;;;;;;;;;;5010226;28;46689;-76
2022/08/09 09:17:20;;;;;;;;;;;;;;;;;;5021243;28;47898;-76
2022/08/09 09:19:46;;;;;;;;;;;;;;;;;;5009358;28;45971;-77
2022/08/09 09:22:13;;;;;;;;;;;;;;;;;;4991089;28;47746;-76
2022/08/09 09:24:41;;;;;;;;;;;;;;;;;;5007607;28;47332;-76
2022/08/09 09:27:08;;;;;;;;;;;;;;;;;;4988323;28;47526;-76
2022/08/09 09:29:55;;;;;;;;;;;;;;;;;;5008072;28;19940;-76
2022/08/09 09:32:41;;;;;;;;;;;;;;;;;;4991825;28;19929;-77
2022/08/09 09:35:08;;;;;;;;;;;;;;;;;;5004962;28;47956;-77
2022/08/09 09:37:35;;;;;;;;;;;;;;;;;;5005703;28;47942;-77
2022/08/09 09:40:01;;;;;;;;;;;;;;;;;;5006551;28;44348;-76
2022/08/09 09:42:31;;;;;;;;;;;;;;;;;;5008292;28;46698;-76
2022/08/09 09:44:57;;;;;;;;;;;;;;;;;;5007443;28;46998;-77
2022/08/09 09:47:24;;;;;;;;;;;;;;;;;;4987522;28;46248;-77
2022/08/09 09:49:50;;;;;;;;;;;;;;;;;;5016288;28;45760;-77
2022/08/09 09:52:32;;;;;;;;;;;;;;;;;;4994407;28;43573;-77
2022/08/09 09:55:02;;;;;;;;;;;;;;;;;;5006606;28;47603;-77
2022/08/09 09:57:42;;;;;;;;;;;;;;;;;;5012447;28;46842;-77
2022/08/09 10:00:28;;;;;;;;;;;;;;;;;;5006281;28;20449;-78
2022/08/09 10:02:54;;;;;;;;;;;;;;;;;;5001851;28;46646;-77
2022/08/09 10:05:22;;;;;;;;;;;;;;;;;;4986811;28;48535;-78
2022/08/09 10:07:52;;;;;;;;;;;;;;;;;;5002129;28;46126;-77
2022/08/09 10:10:36;;;;;;;;;;;;;;;;;;4998466;28;46492;-78
2022/08/09 10:13:02;;;;;;;;;;;;;;;;;;5011367;28;44716;-77
2022/08/09 10:15:28;;;;;;;;;;;;;;;;;;5000288;28;46335;-77
2022/08/09 10:18:14;;;;;;;;;;;;;;;;;;4989795;28;19940;-78
2022/08/09 10:20:41;;;;;;;;;;;;;;;;;;4994685;28;44725;-78
2022/08/09 10:23:10;;;;;;;;;;;;;;;;;;5004778;28;47714;-78
2022/08/09 10:25:36;;;;;;;;;;;;;;;;;;5003472;28;47024;-78
2022/08/09 10:28:22;;;;;;;;;;;;;;;;;;4991927;28;19929;-78
2022/08/09 10:30:48;;;;;;;;;;;;;;;;;;5006480;28;47726;-78
2022/08/09 10:33:35;;;;;;;;;;;;;;;;;;4976733;28;20409;-78
2022/08/09 10:36:21;;;;;;;;;;;;;;;;;;4994132;28;19951;-78
2022/08/09 10:38:47;;;;;;;;;;;;;;;;;;5007186;28;46190;-77
2022/08/09 10:41:22;;;;;;;;;;;;;;;;;;4990237;28;44465;-77
2022/08/09 10:43:48;;;;;;;;;;;;;;;;;;4989595;28;46468;-77
2022/08/09 10:46:24;;;;;;;;;;;;;;;;;;4985124;28;46618;-77
2022/08/09 10:48:50;;;;;;;;;;;;;;;;;;5006369;28;45027;-77
2022/08/09 10:51:17;;;;;;;;;;;;;;;;;;4989571;28;47938;-77
2022/08/09 10:53:43;;;;;;;;;;;;;;;;;;5005861;28;45835;-77
2022/08/09 10:56:12;;;;;;;;;;;;;;;;;;5005543;28;43415;-77
2022/08/09 10:58:38;;;;;;;;;;;;;;;;;;5003693;28;47009;-77
2022/08/09 11:01:04;;;;;;;;;;;;;;;;;;5003131;28;46377;-77
2022/08/09 11:03:50;;;;;;;;;;;;;;;;;;4981126;28;20401;-77
2022/08/09 11:06:19;;;;;;;;;;;;;;;;;;5006471;28;47203;-78
2022/08/09 11:08:46;;;;;;;;;;;;;;;;;;5004118;28;44733;-77
2022/08/09 11:11:18;;;;;;;;;;;;;;;;;;5006206;28;47803;-77
2022/08/09 11:13:44;;;;;;;;;;;;;;;;;;5003784;28;48028;-77
2022/08/09 11:16:19;;;;;;;;;;;;;;;;;;5007073;28;43610;-77
2022/08/09 11:18:58;;;;;;;;;;;;;;;;;;5008428;28;48126;-77
2022/08/09 11:21:25;;;;;;;;;;;;;;;;;;4991083;28;44742;-77
2022/08/09 11:23:51;;;;;;;;;;;;;;;;;;5000209;28;46585;-77
2022/08/09 11:26:17;;;;;;;;;;;;;;;;;;4991002;28;46495;-77
2022/08/09 11:28:43;;;;;;;;;;;;;;;;;;5006309;28;44987;-77
2022/08/09 11:31:20;;;;;;;;;;;;;;;;;;4986868;28;47130;-77
2022/08/09 11:34:01;;;;;;;;;;;;;;;;;;5004729;28;46894;-77
2022/08/09 11:36:28;;;;;;;;;;;;;;;;;;4991354;28;45090;-76
2022/08/09 11:39:01;;;;;;;;;;;;;;;;;;5010644;28;45789;-76
2022/08/09 11:41:27;;;;;;;;;;;;;;;;;;4992610;28;45704;-77
2022/08/09 11:44:03;;;;;;;;;;;;;;;;;;5006396;28;46781;-76
2022/08/09 11:46:30;;;;;;;;;;;;;;;;;;4992226;28;46897;-76
2022/08/09 11:48:58;;;;;;;;;;;;;;;;;;4996848;28;44926;-77
2022/08/09 11:51:24;;;;;;;;;;;;;;;;;;5009530;28;45570;-76
2022/08/09 11:54:11;;;;;;;;;;;;;;;;;;5004430;28;20383;-76
2022/08/09 11:56:38;;;;;;;;;;;;;;;;;;5007200;28;44338;-76
2022/08/09 11:59:10;;;;;;;;;;;;;;;;;;5008607;28;47539;-76
2022/08/09 12:01:36;;;;;;;;;;;;;;;;;;4992434;28;46925;-76
2022/08/09 12:04:22;;;;;;;;;;;;;;;;;;5003808;28;19930;-77
2022/08/09 12:06:57;;;;;;;;;;;;;;;;;;5005026;28;46226;-76
2022/08/09 12:09:23;;;;;;;;;;;;;;;;;;5003915;28;44728;-77
2022/08/09 12:11:50;;;;;;;;;;;;;;;;;;5008674;28;46376;-76
2022/08/09 12:14:27;;;;;;;;;;;;;;;;;;5006700;28;48082;-76
2022/08/09 12:17:06;;;;;;;;;;;;;;;;;;5005799;28;45031;-76
2022/08/09 12:19:52;;;;;;;;;;;;;;;;;;4988810;28;19977;-76
2022/08/09 12:22:19;;;;;;;;;;;;;;;;;;5009243;28;48092;-76
2022/08/09 12:24:45;;;;;;;;;;;;;;;;;;5006886;28;46141;-76
2022/08/09 12:27:11;;;;;;;;;;;;;;;;;;5010325;28;48106;-76
2022/08/09 12:30:00;;;;;;;;;;;;;;;;;;5015379;28;19951;-76
2022/08/09 12:32:47;;;;;;;;;;;;;;;;;;5020239;28;20012;-77
2022/08/09 12:35:14;;;;;;;;;;;;;;;;;;5023673;28;45788;-76
2022/08/09 12:37:46;;;;;;;;;;;;;;;;;;5007811;28;41657;-77
2022/08/09 12:40:20;;;;;;;;;;;;;;;;;;4992282;28;46204;-77
2022/08/09 12:42:49;;;;;;;;;;;;;;;;;;5008624;28;48038;-77
2022/08/09 12:45:16;;;;;;;;;;;;;;;;;;5004294;28;44002;-76
2022/08/09 12:48:00;;;;;;;;;;;;;;;;;;5005543;28;47566;-77
2022/08/09 12:50:26;;;;;;;;;;;;;;;;;;4991180;28;44741;-76
2022/08/09 12:52:53;;;;;;;;;;;;;;;;;;4990702;28;45375;-77
2022/08/09 12:55:35;;;;;;;;;;;;;;;;;;5008535;28;46299;-76
2022/08/09 12:58:21;;;;;;;;;;;;;;;;;;5007341;28;20013;-77
2022/08/09 13:00:53;;;;;;;;;;;;;;;;;;4995867;28;47862;-77
2022/08/09 13:03:19;;;;;;;;;;;;;;;;;;5008686;28;43907;-76
2022/08/09 13:05:53;;;;;;;;;;;;;;;;;;4997423;28;43925;-76
2022/08/09 13:08:38;;;;;;;;;;;;;;;;;;5005219;28;47456;-76
2022/08/09 13:11:08;;;;;;;;;;;;;;;;;;5008109;28;45947;-76
2022/08/09 13:13:41;;;;;;;;;;;;;;;;;;5007843;28;47225;-76
2022/08/09 13:16:27;;;;;;;;;;;;;;;;;;5009457;28;19933;-76
2022/08/09 13:18:53;;;;;;;;;;;;;;;;;;5007036;28;44726;-76
2022/08/09 13:21:21;;;;;;;;;;;;;;;;;;5007169;28;47531;-77
2022/08/09 13:24:08;;;;;;;;;;;;;;;;;;5008102;28;19933;-76
2022/08/09 13:26:56;;;;;;;;;;;;;;;;;;4993903;28;19929;-76
2022/08/09 13:29:24;;;;;;;;;;;;;;;;;;4988745;28;47509;-77
2022/08/09 13:32:07;;;;;;;;;;;;;;;;;;4997153;28;48075;-77
2022/08/09 13:34:44;;;;;;;;;;;;;;;;;;4992151;28;47401;-76
2022/08/09 13:37:11;;;;;;;;;;;;;;;;;;4989795;28;48295;-76
2022/08/09 13:39:38;;;;;;;;;;;;;;;;;;5008189;28;45856;-76
2022/08/09 13:42:24;;;;;;;;;;;;;;;;;;5006334;28;19929;-76
2022/08/09 13:44:51;;;;;;;;;;;;;;;;;;5003857;28;47255;-76
2022/08/09 13:47:18;;;;;;;;;;;;;;;;;;5005896;28;45824;-76
2022/08/09 13:49:56;;;;;;;;;;;;;;;;;;4990279;28;46784;-76
2022/08/09 13:52:26;;;;;;;;;;;;;;;;;;5007931;28;47207;-77
2022/08/09 13:54:52;;;;;;;;;;;;;;;;;;5006969;28;45814;-76
2022/08/09 13:57:25;;;;;;;;;;;;;;;;;;5005740;28;48358;-77
2022/08/09 14:00:01;;;;;;;;;;;;;;;;;;4992124;28;46011;-77
2022/08/09 14:02:27;;;;;;;;;;;;;;;;;;4990015;28;45552;-77
2022/08/09 14:04:53;;;;;;;;;;;;;;;;;;4990010;28;48036;-77
2022/08/09 14:07:25;;;;;;;;;;;;;;;;;;4988548;28;44151;-77
2022/08/09 14:09:51;;;;;;;;;;;;;;;;;;5010010;28;47403;-77
2022/08/09 14:12:18;;;;;;;;;;;;;;;;;;4999110;28;45735;-77
2022/08/09 14:14:44;;;;;;;;;;;;;;;;;;5007698;28;45834;-77
2022/08/09 14:17:18;;;;;;;;;;;;;;;;;;5160928;27;20345;-76
2022/08/09 14:19:48;;;;;;;;;;;;;;;;;;5145971;27;46354;-76
2022/08/09 14:22:17;;;;;;;;;;;;;;;;;;5145581;27;43987;-77
2022/08/09 14:24:43;;;;;;;;;;;;;;;;;;5156804;27;46296;-76
2022/08/09 14:27:18;;;;;;;;;;;;;;;;;;5159187;27;46689;-76
2022/08/09 14:29:45;;;;;;;;;;;;;;;;;;5166516;27;45090;-76
2022/08/09 14:32:32;;;;;;;;;;;;;;;;;;5155017;27;20365;-77
2022/08/09 14:34:58;;;;;;;;;;;;;;;;;;5160099;27;47872;-77
2022/08/09 14:37:24;;;;;;;;;;;;;;;;;;5144040;27;43200;-77
2022/08/09 14:39:53;;;;;;;;;;;;;;;;;;5148436;27;48264;-77
2022/08/09 14:42:19;;;;;;;;;;;;;;;;;;5150250;27;43927;-77
2022/08/09 14:44:57;;;;;;;;;;;;;;;;;;5163109;27;46463;-77
2022/08/09 14:47:25;;;;;;;;;;;;;;;;;;5163239;27;47291;-77
2022/08/09 14:50:08;;;;;;;;;;;;;;;;;;5148718;27;43582;-77
2022/08/09 14:52:34;;;;;;;;;;;;;;;;;;5144747;27;45946;-77
2022/08/09 14:55:00;;;;;;;;;;;;;;;;;;5158379;27;45171;-77
2022/08/09 14:57:26;;;;;;;;;;;;;;;;;;5164535;27;43392;-77
2022/08/09 15:00:00;;;;;;;;;;;;;;;;;;5156883;27;47589;-77
2022/08/09 15:02:26;;;;;;;;;;;;;;;;;;5146445;27;43699;-77
2022/08/09 15:04:52;;;;;;;;;;;;;;;;;;5148963;27;45811;-77
2022/08/09 15:07:18;;;;;;;;;;;;;;;;;;5145360;27;46811;-77
2022/08/09 15:09:45;;;;;;;;;;;;;;;;;;5146700;27;44788;-77
2022/08/09 15:12:31;;;;;;;;;;;;;;;;;;5148046;27;20329;-77
2022/08/09 15:14:58;;;;;;;;;;;;;;;;;;5155698;27;48436;-77
2022/08/09 15:17:24;;;;;;;;;;;;;;;;;;5147633;27;43700;-76
2022/08/09 15:19:50;;;;;;;;;;;;;;;;;;5151070;27;48076;-77
2022/08/09 15:22:24;;;;;;;;;;;;;;;;;;5145212;27;46699;-76
2022/08/09 15:24:51;;;;;;;;;;;;;;;;;;5148253;27;46658;-77
2022/08/09 15:27:17;;;;;;;;;;;;;;;;;;5145683;27;46981;-77
2022/08/09 15:29:43;;;;;;;;;;;;;;;;;;5147840;27;44763;-77
2022/08/09 15:32:30;;;;;;;;;;;;;;;;;;5143331;27;19935;-77
2022/08/09 15:34:59;;;;;;;;;;;;;;;;;;5132522;27;46943;-77
2022/08/09 15:37:38;;;;;;;;;;;;;;;;;;5152287;27;46729;-77
2022/08/09 15:40:22;;;;;;;;;;;;;;;;;;5140606;27;46492;-75
2022/08/09 15:42:52;;;;;;;;;;;;;;;;;;5148158;27;47209;-76
2022/08/09 15:45:18;;;;;;;;;;;;;;;;;;5143788;27;44797;-76
2022/08/09 15:47:50;;;;;;;;;;;;;;;;;;5136037;27;44611;-76
2022/08/09 15:50:28;;;;;;;;;;;;;;;;;;5134168;27;45056;-76
2022/08/09 15:52:55;;;;;;;;;;;;;;;;;;5135634;27;45065;-76
2022/08/09 15:55:32;;;;;;;;;;;;;;;;;;5135710;27;47213;-76
2022/08/09 15:58:00;;;;;;;;;;;;;;;;;;5130125;27;45190;-76
2022/08/09 16:00:26;;;;;;;;;;;;;;;;;;5130142;27;47404;-76
2022/08/09 16:02:53;;;;;;;;;;;;;;;;;;5139893;27;45936;-76
2022/08/09 16:05:19;;;;;;;;;;;;;;;;;;5148874;27;44991;-76
2022/08/09 16:07:46;;;;;;;;;;;;;;;;;;5146018;27;47353;-76
2022/08/09 16:10:14;;;;;;;;;;;;;;;;;;5143552;27;44968;-76
2022/08/09 16:12:42;;;;;;;;;;;;;;;;;;5137041;27;47678;-76
2022/08/09 16:15:15;;;;;;;;;;;;;;;;;;5129215;27;48288;-76
2022/08/09 16:18:03;;;;;;;;;;;;;;;;;;5131121;27;19928;-77
2022/08/09 16:20:35;;;;;;;;;;;;;;;;;;5131005;27;45315;-77
2022/08/09 16:23:01;;;;;;;;;;;;;;;;;;5141636;27;47270;-76
2022/08/09 16:25:28;;;;;;;;;;;;;;;;;;5129787;27;44027;-76
2022/08/09 16:28:02;;;;;;;;;;;;;;;;;;5127390;27;46476;-76
2022/08/09 16:30:28;;;;;;;;;;;;;;;;;;5147107;27;34790;-77
2022/08/09 16:33:07;;;;;;;;;;;;;;;;;;5143945;27;46433;-77
2022/08/09 16:35:36;;;;;;;;;;;;;;;;;;5145272;27;46892;-76
2022/08/09 16:38:23;;;;;;;;;;;;;;;;;;5137012;27;43983;-77
2022/08/09 16:40:49;;;;;;;;;;;;;;;;;;5127334;27;46126;-76
2022/08/09 16:43:15;;;;;;;;;;;;;;;;;;5128410;27;46878;-76
2022/08/09 16:45:45;;;;;;;;;;;;;;;;;;5129812;27;44110;-76
2022/08/09 16:48:11;;;;;;;;;;;;;;;;;;5128690;27;45082;-76
2022/08/09 16:50:57;;;;;;;;;;;;;;;;;;5139364;27;19927;-76
2022/08/09 16:53:32;;;;;;;;;;;;;;;;;;5148830;27;47687;-76
2022/08/09 16:55:59;;;;;;;;;;;;;;;;;;5142393;27;46920;-76
2022/08/09 16:58:31;;;;;;;;;;;;;;;;;;5129331;27;44104;-76
2022/08/09 17:01:01;;;;;;;;;;;;;;;;;;5141402;27;44960;-76
2022/08/09 17:03:27;;;;;;;;;;;;;;;;;;5148959;27;48262;-74
2022/08/09 17:05:54;;;;;;;;;;;;;;;;;;5147139;27;44066;-75
2022/08/09 17:08:33;;;;;;;;;;;;;;;;;;5145659;27;46626;-76
2022/08/09 17:11:12;;;;;;;;;;;;;;;;;;5145158;27;48553;-75
2022/08/09 17:13:38;;;;;;;;;;;;;;;;;;5144925;27;44767;-76